createdAt,value
2023-04-21T00:00:28.036Z,28.25
2023-04-21T00:03:48.844Z,24.00
2023-04-21T00:10:22.156Z,19.35
2023-04-21T00:13:39.830Z,17.73
2023-04-21T00:16:57.073Z,22.55
2023-04-21T00:20:16.326Z,22.48
2023-04-21T00:23:32.944Z,21.35
2023-04-21T00:26:49.312Z,26.08
2023-04-21T00:30:06.303Z,23.25
2023-04-21T00:33:25.805Z,21.67
2023-04-21T00:36:44.287Z,29.00
2023-04-21T00:40:01.339Z,27.18
2023-04-21T00:43:18.258Z,24.08
2023-04-21T00:46:37.594Z,24.40
2023-04-21T00:49:54.742Z,21.10
2023-04-21T00:53:11.605Z,27.00
2023-04-21T00:56:29.640Z,22.88
2023-04-21T00:59:46.249Z,21.98
2023-04-21T01:03:03.271Z,23.80
2023-04-21T01:06:21.327Z,18.85
2023-04-21T01:09:39.628Z,17.80
2023-04-21T01:12:57.574Z,22.03
2023-04-21T01:16:15.436Z,19.93
2023-04-21T01:19:33.182Z,18.23
2023-04-21T01:22:53.571Z,20.30
2023-04-21T01:26:10.776Z,20.43
2023-04-21T01:29:27.534Z,17.68
2023-04-21T01:32:44.484Z,19.45
2023-04-21T01:36:02.231Z,17.15
2023-04-21T01:39:18.899Z,18.78
2023-04-21T01:42:37.864Z,16.93
2023-04-21T01:45:55.007Z,21.98
2023-04-21T01:49:13.569Z,22.08
2023-04-21T01:52:30.298Z,19.55
2023-04-21T01:55:47.026Z,18.70
2023-04-21T01:59:03.644Z,19.00
2023-04-21T02:02:20.200Z,23.40
2023-04-21T02:05:37.945Z,17.70
2023-04-21T02:08:54.394Z,24.15
2023-04-21T02:12:11.295Z,23.43
2023-04-21T02:15:30.116Z,21.95
2023-04-21T02:18:46.846Z,17.53
2023-04-21T02:22:03.633Z,24.08
2023-04-21T02:25:21.206Z,23.63
2023-04-21T02:28:37.688Z,22.78
2023-04-21T02:32:01.167Z,22.75
2023-04-21T02:35:16.219Z,26.48
2023-04-21T02:38:33.977Z,22.78
2023-04-21T02:41:51.415Z,30.28
2023-04-21T02:45:08.490Z,36.70
2023-04-21T02:48:25.310Z,35.65
2023-04-21T02:51:42.392Z,34.28
2023-04-21T02:54:59.226Z,26.80
2023-04-21T02:58:15.799Z,28.98
2023-04-21T03:01:32.561Z,35.48
2023-04-21T03:04:49.963Z,33.60
2023-04-21T03:08:06.625Z,33.35
2023-04-21T03:11:24.426Z,31.30
2023-04-21T03:14:43.157Z,30.10
2023-04-21T03:17:59.978Z,26.88
2023-04-21T03:21:17.112Z,27.38
2023-04-21T03:24:33.982Z,28.38
2023-04-21T03:27:50.345Z,22.93
2023-04-21T03:31:06.962Z,26.20
2023-04-21T03:34:24.680Z,33.63
2023-04-21T03:37:41.026Z,32.95
2023-04-21T03:41:04.900Z,34.85
2023-04-21T03:44:22.319Z,27.85
2023-04-21T03:47:38.952Z,26.20
2023-04-21T03:50:55.645Z,25.53
2023-04-21T03:54:12.639Z,29.23
2023-04-21T03:57:30.984Z,33.70
2023-04-21T04:00:48.143Z,31.00
2023-04-21T04:04:05.473Z,28.95
2023-04-21T04:07:22.691Z,38.60
2023-04-21T04:10:39.330Z,30.23
2023-04-21T04:13:55.616Z,30.13
2023-04-21T04:17:12.744Z,32.60
2023-04-21T04:20:29.536Z,27.73
2023-04-21T04:23:46.329Z,31.18
2023-04-21T04:27:04.284Z,33.83
2023-04-21T04:30:22.333Z,35.55
2023-04-21T04:33:38.740Z,34.35
2023-04-21T04:36:57.913Z,29.95
2023-04-21T04:40:17.603Z,30.08
2023-04-21T04:43:34.328Z,31.48
2023-04-21T04:46:53.542Z,31.48
2023-04-21T04:50:10.174Z,28.88
2023-04-21T04:53:26.793Z,36.90
2023-04-21T04:56:44.042Z,34.13
2023-04-21T05:00:04.248Z,27.48
2023-04-21T05:03:21.829Z,31.08
2023-04-21T05:06:38.392Z,23.98
2023-04-21T05:09:55.433Z,28.93
2023-04-21T05:13:12.242Z,25.35
2023-04-21T05:16:30.096Z,26.43
2023-04-21T05:19:49.371Z,24.00
2023-04-21T05:26:21.754Z,27.30
2023-04-21T05:29:39.300Z,25.75
2023-04-21T05:32:55.751Z,23.60
2023-04-21T05:36:15.285Z,21.90
2023-04-21T05:39:39.520Z,27.43
2023-04-21T05:42:59.213Z,25.25
2023-04-21T05:46:20.393Z,26.88
2023-04-21T05:49:41.934Z,21.88
2023-04-21T05:53:06.715Z,22.43
2023-04-21T05:56:26.723Z,23.10
2023-04-21T05:59:46.842Z,26.20
2023-04-21T06:03:07.701Z,23.88
2023-04-21T06:06:28.194Z,20.35
2023-04-21T06:09:46.197Z,24.28
2023-04-21T06:13:22.439Z,19.70
2023-04-21T06:16:58.043Z,22.68
2023-04-21T06:24:44.234Z,22.93
2023-04-21T06:28:21.776Z,23.40
2023-04-21T06:36:06.163Z,25.75
2023-04-21T06:40:07.397Z,24.00
2023-04-21T06:43:48.952Z,26.10
2023-04-21T06:47:41.877Z,23.43
2023-04-21T06:51:58.580Z,19.30
2023-04-21T06:55:36.513Z,27.23
2023-04-21T06:59:17.349Z,23.18
2023-04-21T07:03:06.573Z,25.50
2023-04-21T07:06:54.878Z,22.75
2023-04-21T07:10:22.085Z,24.38
2023-04-21T07:13:38.613Z,27.98
2023-04-21T07:16:58.735Z,27.13
2023-04-21T07:20:29.117Z,25.88
2023-04-21T07:23:57.367Z,24.78
2023-04-21T07:27:26.931Z,31.35
2023-04-21T07:30:45.835Z,27.93
2023-04-21T07:34:07.860Z,30.50
2023-04-21T07:37:26.077Z,28.50
2023-04-21T07:41:00.357Z,21.63
2023-04-21T07:44:29.139Z,20.60
2023-04-21T07:47:47.320Z,24.88
2023-04-21T07:51:12.852Z,27.25
2023-04-21T07:54:33.880Z,25.68
2023-04-21T07:57:51.880Z,23.35
2023-04-21T08:01:10.032Z,22.05
2023-04-21T08:04:32.334Z,17.35
2023-04-21T08:08:08.456Z,22.38
2023-04-21T08:11:31.815Z,18.65
2023-04-21T08:14:49.322Z,44.70
2023-04-21T08:18:05.724Z,19.88
2023-04-21T08:21:22.347Z,26.05
2023-04-21T08:24:39.141Z,16.18
2023-04-21T08:27:58.450Z,15.73
2023-04-21T08:31:21.433Z,17.45
2023-04-21T08:34:37.612Z,13.40
2023-04-21T08:38:00.862Z,12.93
2023-04-21T08:41:19.032Z,11.75
2023-04-21T08:44:36.166Z,13.73
2023-04-21T08:47:53.291Z,11.60
2023-04-21T08:51:10.650Z,11.35
2023-04-21T08:54:28.615Z,16.38
2023-04-21T08:57:45.179Z,15.15
2023-04-21T09:01:03.584Z,13.23
2023-04-21T09:07:51.644Z,12.33
2023-04-21T09:11:14.874Z,13.88
2023-04-21T09:14:36.856Z,13.88
2023-04-21T09:17:56.602Z,11.45
2023-04-21T09:21:21.909Z,14.20
2023-04-21T09:24:38.597Z,14.85
2023-04-21T09:27:56.638Z,41.65
2023-04-21T09:31:21.126Z,14.50
2023-04-21T09:34:37.474Z,10.58
2023-04-21T09:37:56.204Z,13.00
2023-04-21T09:41:12.797Z,13.80
2023-04-21T09:44:31.903Z,10.48
2023-04-21T09:47:50.890Z,11.73
2023-04-21T09:54:29.990Z,8.48
2023-04-21T09:57:49.673Z,10.88
2023-04-21T10:01:08.432Z,12.15
2023-04-21T10:07:41.491Z,7.60
2023-04-21T10:10:58.631Z,6.38
2023-04-21T10:14:16.589Z,4.60
2023-04-21T10:17:34.985Z,8.17
2023-04-21T10:21:07.620Z,6.80
2023-04-21T10:24:27.824Z,6.30
2023-04-21T10:27:47.606Z,5.55
2023-04-21T10:31:40.141Z,48.60
2023-04-21T10:34:56.813Z,38.53
2023-04-21T10:38:16.117Z,8.40
2023-04-21T10:41:40.009Z,6.13
2023-04-21T10:45:08.339Z,5.85
2023-04-21T10:48:26.568Z,6.65
2023-04-21T10:52:17.362Z,5.98
2023-04-21T10:55:36.876Z,6.13
2023-04-21T10:58:54.204Z,7.73
2023-04-21T11:02:11.890Z,5.60
2023-04-21T11:05:40.331Z,4.75
2023-04-21T11:09:10.332Z,6.28
2023-04-21T11:12:27.755Z,5.98
2023-04-21T11:15:44.578Z,5.68
2023-04-21T11:19:01.345Z,5.33
2023-04-21T11:22:18.186Z,6.20
2023-04-21T11:25:35.030Z,7.93
2023-04-21T11:28:56.595Z,8.20
2023-04-21T11:32:17.983Z,6.05
2023-04-21T11:35:34.901Z,6.68
2023-04-21T11:38:52.160Z,5.88
2023-04-21T11:42:08.890Z,9.40
2023-04-21T11:45:28.835Z,7.03
2023-04-21T11:48:45.425Z,7.40
2023-04-21T11:52:03.998Z,7.05
2023-04-21T11:55:25.164Z,5.45
2023-04-21T11:58:42.313Z,9.28
2023-04-21T12:02:00.298Z,8.58
2023-04-21T12:05:19.381Z,7.70
2023-04-21T12:11:55.830Z,6.25
2023-04-21T12:15:14.490Z,25.35
2023-04-21T12:18:36.682Z,7.83
2023-04-21T12:21:53.357Z,5.00
2023-04-21T12:25:27.865Z,7.85
2023-04-21T12:28:47.563Z,6.68
2023-04-21T12:32:04.020Z,6.28
2023-04-21T12:35:21.674Z,5.90
2023-04-21T12:38:39.811Z,5.43
2023-04-21T12:41:56.206Z,4.13
2023-04-21T12:45:14.650Z,5.15
2023-04-21T12:48:31.538Z,7.45
2023-04-21T12:51:55.132Z,5.00
2023-04-21T12:55:15.158Z,6.35
2023-04-21T12:58:31.638Z,5.23
2023-04-21T13:01:48.999Z,4.28
2023-04-21T13:05:05.876Z,6.20
2023-04-21T13:08:22.410Z,4.03
2023-04-21T13:11:38.782Z,5.03
2023-04-21T13:14:55.028Z,5.00
2023-04-21T13:18:11.641Z,6.20
2023-04-21T13:21:28.735Z,3.98
2023-04-21T13:24:45.566Z,5.00
2023-04-21T13:28:02.120Z,4.53
2023-04-21T13:31:19.474Z,4.63
2023-04-21T13:34:36.699Z,4.38
2023-04-21T13:37:52.996Z,4.93
2023-04-21T13:41:09.875Z,3.80
2023-04-21T13:44:26.706Z,4.85
2023-04-21T13:47:44.090Z,15.63
2023-04-21T13:51:02.674Z,10.98
2023-04-21T13:54:19.234Z,4.95
2023-04-21T13:57:36.173Z,4.33
2023-04-21T14:00:52.589Z,13.75
2023-04-21T14:04:09.741Z,5.00
2023-04-21T14:07:26.539Z,5.43
2023-04-21T14:10:43.857Z,4.28
2023-04-21T14:17:21.543Z,10.60
2023-04-21T14:20:40.211Z,5.90
2023-04-21T14:23:56.649Z,6.03
2023-04-21T14:27:15.796Z,6.08
2023-04-21T14:30:33.050Z,5.73
2023-04-21T14:33:51.828Z,6.85
2023-04-21T14:37:08.117Z,4.95
2023-04-21T14:40:25.145Z,5.93
2023-04-21T14:43:41.410Z,5.80
2023-04-21T14:47:09.132Z,6.73
2023-04-21T14:50:17.794Z,4.17
2023-04-21T14:53:34.508Z,4.53
2023-04-21T14:56:51.216Z,4.05
2023-04-21T15:00:08.588Z,3.95
2023-04-21T15:03:25.434Z,5.58
2023-04-21T15:06:42.337Z,8.78
2023-04-21T15:09:58.794Z,5.60
2023-04-21T15:13:15.296Z,5.63
2023-04-21T15:16:32.023Z,4.75
2023-04-21T15:19:48.697Z,6.38
2023-04-21T15:23:07.755Z,4.50
2023-04-21T15:26:25.260Z,4.60
2023-04-21T15:29:42.036Z,5.53
2023-04-21T15:32:58.426Z,4.25
2023-04-21T15:36:15.373Z,5.20
2023-04-21T15:39:31.884Z,3.55
2023-04-21T15:42:48.469Z,3.83
2023-04-21T15:46:06.661Z,3.05
2023-04-21T15:49:25.716Z,7.05
2023-04-21T15:52:44.297Z,5.48
2023-04-21T15:56:00.712Z,7.03
2023-04-21T15:59:18.257Z,4.45
2023-04-21T16:02:35.753Z,4.98
2023-04-21T16:05:52.566Z,40.10
2023-04-21T16:09:10.137Z,9.13
2023-04-21T16:12:27.297Z,5.05
2023-04-21T16:15:43.995Z,4.03
2023-04-21T16:19:01.177Z,3.70
2023-04-21T16:22:21.108Z,4.70
2023-04-21T16:25:38.235Z,4.65
2023-04-21T16:28:57.869Z,3.98
2023-04-21T16:32:17.047Z,5.48
2023-04-21T16:35:34.213Z,4.53
2023-04-21T16:38:54.079Z,4.55
2023-04-21T16:42:10.649Z,5.98
2023-04-21T16:45:29.279Z,3.80
2023-04-21T16:48:48.339Z,5.50
2023-04-21T16:52:07.507Z,4.50
2023-04-21T16:55:24.319Z,5.13
2023-04-21T16:58:42.097Z,5.50
2023-04-21T17:01:58.377Z,5.15
2023-04-21T17:05:17.275Z,4.50
2023-04-21T17:08:33.639Z,5.10
2023-04-21T17:11:50.563Z,4.75
2023-04-21T17:15:10.368Z,5.13
2023-04-21T17:18:27.016Z,6.50
2023-04-21T17:21:44.788Z,3.58
2023-04-21T17:25:01.308Z,4.70
2023-04-21T17:28:17.857Z,4.38
2023-04-21T17:31:34.624Z,3.93
2023-04-21T17:34:51.168Z,5.60
2023-04-21T17:38:08.392Z,5.03
2023-04-21T17:41:25.098Z,6.43
2023-04-21T17:44:42.045Z,5.85
2023-04-21T17:48:01.673Z,5.78
2023-04-21T17:51:19.961Z,4.13
2023-04-21T17:54:37.890Z,6.80
2023-04-21T17:58:02.254Z,8.60
2023-04-21T18:01:18.804Z,7.90
2023-04-21T18:04:36.004Z,8.88
2023-04-21T18:07:54.202Z,10.28
2023-04-21T18:11:12.954Z,14.08
2023-04-21T18:14:29.474Z,10.65
2023-04-21T18:17:46.166Z,10.70
2023-04-21T18:21:05.112Z,12.70
2023-04-21T18:24:23.904Z,13.78
2023-04-21T18:27:40.914Z,13.83
2023-04-21T18:30:58.376Z,12.18
2023-04-21T18:34:15.315Z,15.20
2023-04-21T18:37:31.849Z,12.68
2023-04-21T18:40:49.685Z,18.78
2023-04-21T18:44:06.809Z,12.68
2023-04-21T18:47:23.624Z,11.90
2023-04-21T18:50:41.011Z,11.63
2023-04-21T18:53:57.786Z,11.75
2023-04-21T18:57:15.051Z,11.83
2023-04-21T19:00:32.865Z,21.35
2023-04-21T19:03:50.272Z,16.45
2023-04-21T19:07:09.011Z,18.33
2023-04-21T19:10:26.889Z,18.03
2023-04-21T19:13:43.532Z,16.05
2023-04-21T19:17:00.252Z,19.20
2023-04-21T19:20:19.915Z,19.95
2023-04-21T19:23:36.575Z,16.83
2023-04-21T19:26:53.557Z,16.68
2023-04-21T19:30:20.320Z,17.08
2023-04-21T19:33:36.992Z,14.08
2023-04-21T19:36:54.618Z,15.53
2023-04-21T19:40:12.763Z,17.65
2023-04-21T19:43:29.092Z,16.18
2023-04-21T19:46:46.845Z,15.00
2023-04-21T19:50:03.376Z,21.00
2023-04-21T19:53:19.991Z,26.18
2023-04-21T19:56:37.538Z,25.25
2023-04-21T19:59:53.960Z,24.78
2023-04-21T20:03:12.589Z,27.80
2023-04-21T20:06:29.538Z,20.85
2023-04-21T20:09:46.495Z,26.38
2023-04-21T20:13:03.074Z,23.88
2023-04-21T20:16:20.901Z,26.00
2023-04-21T20:19:39.792Z,25.05
2023-04-21T20:22:56.832Z,24.23
2023-04-21T20:26:13.433Z,25.80
2023-04-21T20:29:30.421Z,20.03
2023-04-21T20:32:46.905Z,20.23
2023-04-21T20:36:05.917Z,17.63
2023-04-21T20:39:22.848Z,21.75
2023-04-21T20:42:39.711Z,21.05
2023-04-21T20:45:56.974Z,20.35
2023-04-21T20:49:13.431Z,18.65
2023-04-21T20:52:32.257Z,20.10
2023-04-21T20:55:49.181Z,18.00
2023-04-21T20:59:06.967Z,17.80
2023-04-21T21:02:23.550Z,19.65
2023-04-21T21:05:40.909Z,24.33
2023-04-21T21:08:57.776Z,22.78
2023-04-21T21:12:16.109Z,19.30
2023-04-21T21:15:33.418Z,18.45
2023-04-21T21:18:50.326Z,23.28
2023-04-21T21:22:06.675Z,24.28
2023-04-21T21:25:23.636Z,19.10
2023-04-21T21:28:40.310Z,20.28
2023-04-21T21:31:56.798Z,18.03
2023-04-21T21:35:14.912Z,17.40
2023-04-21T21:38:31.238Z,21.83
2023-04-21T21:41:47.942Z,16.33
2023-04-21T21:45:04.449Z,24.30
2023-04-21T21:48:21.905Z,16.93
2023-04-21T21:51:38.310Z,17.83
2023-04-21T21:54:55.030Z,19.90
2023-04-21T21:58:11.508Z,17.10
2023-04-21T22:01:28.096Z,17.03
2023-04-21T22:04:44.810Z,20.33
2023-04-21T22:08:01.291Z,18.43
2023-04-21T22:11:18.031Z,20.30
2023-04-21T22:14:35.330Z,21.28
2023-04-21T22:17:51.771Z,20.18
2023-04-21T22:21:09.337Z,18.25
2023-04-21T22:24:26.958Z,15.08
2023-04-21T22:27:43.513Z,18.45
2023-04-21T22:31:00.052Z,18.05
2023-04-21T22:34:17.694Z,16.58
2023-04-21T22:37:34.388Z,16.63
2023-04-21T22:40:51.403Z,13.95
2023-04-21T22:44:08.882Z,14.10
2023-04-21T22:47:25.567Z,17.80
2023-04-21T22:50:44.426Z,13.85
2023-04-21T22:54:00.969Z,14.65
2023-04-21T22:57:19.189Z,18.25
2023-04-21T23:00:35.692Z,13.05
2023-04-21T23:03:52.658Z,15.15
2023-04-21T23:07:09.179Z,16.30
2023-04-21T23:10:25.762Z,14.48
2023-04-21T23:13:42.971Z,19.08
2023-04-21T23:17:00.159Z,17.38
2023-04-21T23:20:19.742Z,20.50
2023-04-21T23:26:50.693Z,15.30
2023-04-21T23:30:07.448Z,17.13
2023-04-21T23:33:25.185Z,15.73
2023-04-21T23:36:42.523Z,17.15
2023-04-21T23:39:59.747Z,17.48
2023-04-21T23:43:16.607Z,17.43
2023-04-21T23:46:33.007Z,20.23
2023-04-21T23:49:52.463Z,20.15
2023-04-21T23:53:10.074Z,21.70
2023-04-21T23:56:26.960Z,18.28
2023-04-21T23:59:43.442Z,23.20
